sensor_id;sensor_type;location;lat;lon;timestamp;P1;durP1;ratioP1;P2;durP2;ratioP2
36855;SDS011;22788;51.434;6.786;2023-05-23T00:01:10;6.75;;;5.45;;
36855;SDS011;22788;51.434;6.786;2023-05-23T00:03:36;7.65;;;5.60;;
36855;SDS011;22788;51.434;6.786;2023-05-23T00:06:04;9.00;;;5.38;;
36855;SDS011;22788;51.434;6.786;2023-05-23T00:08:31;7.05;;;4.93;;
36855;SDS011;22788;51.434;6.786;2023-05-23T00:10:56;7.90;;;4.80;;
36855;SDS011;22788;51.434;6.786;2023-05-23T00:13:22;8.73;;;5.43;;
36855;SDS011;22788;51.434;6.786;2023-05-23T00:15:48;10.43;;;5.88;;
36855;SDS011;22788;51.434;6.786;2023-05-23T00:18:13;8.40;;;5.70;;
36855;SDS011;22788;51.434;6.786;2023-05-23T00:20:39;7.28;;;5.20;;
36855;SDS011;22788;51.434;6.786;2023-05-23T00:23:07;7.03;;;5.25;;
36855;SDS011;22788;51.434;6.786;2023-05-23T00:25:32;5.63;;;4.65;;
36855;SDS011;22788;51.434;6.786;2023-05-23T00:27:58;6.25;;;5.03;;
36855;SDS011;22788;51.434;6.786;2023-05-23T00:30:24;13.27;;;4.93;;
36855;SDS011;22788;51.434;6.786;2023-05-23T00:32:50;5.70;;;4.55;;
36855;SDS011;22788;51.434;6.786;2023-05-23T00:35:17;5.70;;;4.60;;
36855;SDS011;22788;51.434;6.786;2023-05-23T00:37:42;6.07;;;4.80;;
36855;SDS011;22788;51.434;6.786;2023-05-23T00:40:10;7.20;;;4.38;;
36855;SDS011;22788;51.434;6.786;2023-05-23T00:42:36;5.57;;;4.57;;
36855;SDS011;22788;51.434;6.786;2023-05-23T00:45:01;10.43;;;5.00;;
36855;SDS011;22788;51.434;6.786;2023-05-23T00:47:27;6.47;;;4.60;;
36855;SDS011;22788;51.434;6.786;2023-05-23T00:49:53;6.45;;;4.60;;
36855;SDS011;22788;51.434;6.786;2023-05-23T00:52:19;7.47;;;4.78;;
36855;SDS011;22788;51.434;6.786;2023-05-23T00:54:44;8.45;;;4.18;;
36855;SDS011;22788;51.434;6.786;2023-05-23T00:57:11;7.03;;;4.43;;
36855;SDS011;22788;51.434;6.786;2023-05-23T00:59:37;6.38;;;3.92;;
36855;SDS011;22788;51.434;6.786;2023-05-23T01:02:03;5.85;;;4.63;;
36855;SDS011;22788;51.434;6.786;2023-05-23T01:04:29;6.22;;;4.10;;
36855;SDS011;22788;51.434;6.786;2023-05-23T01:06:55;4.80;;;4.15;;
36855;SDS011;22788;51.434;6.786;2023-05-23T01:09:21;6.90;;;4.40;;
36855;SDS011;22788;51.434;6.786;2023-05-23T01:11:50;5.45;;;4.20;;
36855;SDS011;22788;51.434;6.786;2023-05-23T01:14:34;5.07;;;3.72;;
36855;SDS011;22788;51.434;6.786;2023-05-23T01:17:06;4.13;;;3.72;;
36855;SDS011;22788;51.434;6.786;2023-05-23T01:19:48;6.63;;;4.85;;
36855;SDS011;22788;51.434;6.786;2023-05-23T01:22:32;5.07;;;4.18;;
36855;SDS011;22788;51.434;6.786;2023-05-23T01:25:09;4.75;;;3.90;;
36855;SDS011;22788;51.434;6.786;2023-05-23T01:27:45;4.97;;;4.30;;
36855;SDS011;22788;51.434;6.786;2023-05-23T01:30:16;5.50;;;3.88;;
36855;SDS011;22788;51.434;6.786;2023-05-23T01:32:43;5.63;;;4.53;;
36855;SDS011;22788;51.434;6.786;2023-05-23T01:35:09;6.63;;;4.40;;
36855;SDS011;22788;51.434;6.786;2023-05-23T01:37:35;9.57;;;4.10;;
36855;SDS011;22788;51.434;6.786;2023-05-23T01:40:01;4.75;;;4.00;;
36855;SDS011;22788;51.434;6.786;2023-05-23T01:42:27;4.55;;;3.85;;
36855;SDS011;22788;51.434;6.786;2023-05-23T01:44:54;4.85;;;4.35;;
36855;SDS011;22788;51.434;6.786;2023-05-23T01:47:20;4.85;;;4.00;;
36855;SDS011;22788;51.434;6.786;2023-05-23T01:49:46;5.00;;;3.78;;
36855;SDS011;22788;51.434;6.786;2023-05-23T01:52:12;4.85;;;4.28;;
36855;SDS011;22788;51.434;6.786;2023-05-23T01:54:38;6.25;;;3.97;;
36855;SDS011;22788;51.434;6.786;2023-05-23T01:57:04;5.07;;;3.78;;
36855;SDS011;22788;51.434;6.786;2023-05-23T01:59:30;5.18;;;4.22;;
36855;SDS011;22788;51.434;6.786;2023-05-23T02:01:58;7.22;;;4.75;;
36855;SDS011;22788;51.434;6.786;2023-05-23T02:04:23;7.63;;;3.97;;
36855;SDS011;22788;51.434;6.786;2023-05-23T02:06:49;6.72;;;4.68;;
36855;SDS011;22788;51.434;6.786;2023-05-23T02:09:15;6.00;;;4.85;;
36855;SDS011;22788;51.434;6.786;2023-05-23T02:11:40;7.97;;;4.32;;
36855;SDS011;22788;51.434;6.786;2023-05-23T02:14:06;6.57;;;4.45;;
36855;SDS011;22788;51.434;6.786;2023-05-23T02:16:32;5.97;;;4.63;;
36855;SDS011;22788;51.434;6.786;2023-05-23T02:18:59;5.68;;;4.50;;
36855;SDS011;22788;51.434;6.786;2023-05-23T02:21:24;7.10;;;4.50;;
36855;SDS011;22788;51.434;6.786;2023-05-23T02:23:50;7.28;;;4.32;;
36855;SDS011;22788;51.434;6.786;2023-05-23T02:26:15;5.97;;;3.78;;
36855;SDS011;22788;51.434;6.786;2023-05-23T02:28:41;4.50;;;4.00;;
36855;SDS011;22788;51.434;6.786;2023-05-23T02:31:07;6.18;;;4.93;;
36855;SDS011;22788;51.434;6.786;2023-05-23T02:33:32;8.15;;;5.25;;
36855;SDS011;22788;51.434;6.786;2023-05-23T02:35:59;5.75;;;4.85;;
36855;SDS011;22788;51.434;6.786;2023-05-23T02:38:25;8.05;;;4.80;;
36855;SDS011;22788;51.434;6.786;2023-05-23T02:40:50;6.05;;;4.32;;
36855;SDS011;22788;51.434;6.786;2023-05-23T02:43:16;7.75;;;4.90;;
36855;SDS011;22788;51.434;6.786;2023-05-23T02:45:42;8.80;;;4.90;;
36855;SDS011;22788;51.434;6.786;2023-05-23T02:48:07;9.00;;;5.45;;
36855;SDS011;22788;51.434;6.786;2023-05-23T02:50:33;10.45;;;5.20;;
36855;SDS011;22788;51.434;6.786;2023-05-23T02:53:00;12.75;;;5.82;;
36855;SDS011;22788;51.434;6.786;2023-05-23T02:55:25;9.10;;;6.38;;
36855;SDS011;22788;51.434;6.786;2023-05-23T02:57:51;6.55;;;4.55;;
36855;SDS011;22788;51.434;6.786;2023-05-23T03:00:17;6.72;;;5.40;;
36855;SDS011;22788;51.434;6.786;2023-05-23T03:02:42;10.15;;;5.90;;
36855;SDS011;22788;51.434;6.786;2023-05-23T03:05:08;11.35;;;6.10;;
36855;SDS011;22788;51.434;6.786;2023-05-23T03:07:34;8.15;;;5.10;;
36855;SDS011;22788;51.434;6.786;2023-05-23T03:10:01;12.25;;;6.38;;
36855;SDS011;22788;51.434;6.786;2023-05-23T03:12:26;9.40;;;5.40;;
36855;SDS011;22788;51.434;6.786;2023-05-23T03:14:52;11.57;;;6.32;;
36855;SDS011;22788;51.434;6.786;2023-05-23T03:17:18;7.10;;;5.28;;
36855;SDS011;22788;51.434;6.786;2023-05-23T03:19:43;11.65;;;5.07;;
36855;SDS011;22788;51.434;6.786;2023-05-23T03:22:09;8.52;;;4.88;;
36855;SDS011;22788;51.434;6.786;2023-05-23T03:24:34;6.53;;;5.07;;
36855;SDS011;22788;51.434;6.786;2023-05-23T03:27:02;9.10;;;5.13;;
36855;SDS011;22788;51.434;6.786;2023-05-23T03:29:27;8.32;;;4.82;;
36855;SDS011;22788;51.434;6.786;2023-05-23T03:31:53;9.07;;;5.03;;
36855;SDS011;22788;51.434;6.786;2023-05-23T03:34:19;6.85;;;4.53;;
36855;SDS011;22788;51.434;6.786;2023-05-23T03:36:44;5.40;;;4.30;;
36855;SDS011;22788;51.434;6.786;2023-05-23T03:39:10;7.68;;;4.90;;
36855;SDS011;22788;51.434;6.786;2023-05-23T03:41:35;7.85;;;4.57;;
36855;SDS011;22788;51.434;6.786;2023-05-23T03:44:02;6.43;;;4.25;;
36855;SDS011;22788;51.434;6.786;2023-05-23T03:46:28;10.50;;;5.50;;
36855;SDS011;22788;51.434;6.786;2023-05-23T03:48:54;8.57;;;4.65;;
36855;SDS011;22788;51.434;6.786;2023-05-23T03:51:19;7.88;;;4.78;;
36855;SDS011;22788;51.434;6.786;2023-05-23T03:53:45;6.82;;;4.32;;
36855;SDS011;22788;51.434;6.786;2023-05-23T03:56:10;7.82;;;4.28;;
36855;SDS011;22788;51.434;6.786;2023-05-23T03:58:36;12.27;;;5.30;;
36855;SDS011;22788;51.434;6.786;2023-05-23T04:01:03;9.30;;;4.97;;
36855;SDS011;22788;51.434;6.786;2023-05-23T04:03:29;7.15;;;5.10;;
36855;SDS011;22788;51.434;6.786;2023-05-23T04:05:54;7.55;;;4.32;;
36855;SDS011;22788;51.434;6.786;2023-05-23T04:08:20;8.05;;;5.15;;
36855;SDS011;22788;51.434;6.786;2023-05-23T04:10:46;11.40;;;5.20;;
36855;SDS011;22788;51.434;6.786;2023-05-23T04:13:11;9.90;;;6.90;;
36855;SDS011;22788;51.434;6.786;2023-05-23T04:15:37;11.52;;;5.55;;
36855;SDS011;22788;51.434;6.786;2023-05-23T04:18:04;11.05;;;6.00;;
36855;SDS011;22788;51.434;6.786;2023-05-23T04:20:29;6.82;;;5.25;;
36855;SDS011;22788;51.434;6.786;2023-05-23T04:22:55;6.95;;;5.18;;
36855;SDS011;22788;51.434;6.786;2023-05-23T04:25:21;10.80;;;5.55;;
36855;SDS011;22788;51.434;6.786;2023-05-23T04:27:46;7.53;;;5.20;;
36855;SDS011;22788;51.434;6.786;2023-05-23T04:30:12;7.40;;;4.65;;
36855;SDS011;22788;51.434;6.786;2023-05-23T04:32:38;7.60;;;5.45;;
36855;SDS011;22788;51.434;6.786;2023-05-23T04:35:06;7.28;;;4.70;;
36855;SDS011;22788;51.434;6.786;2023-05-23T04:37:32;10.10;;;5.63;;
36855;SDS011;22788;51.434;6.786;2023-05-23T04:39:58;7.20;;;5.85;;
36855;SDS011;22788;51.434;6.786;2023-05-23T04:42:23;7.65;;;5.35;;
36855;SDS011;22788;51.434;6.786;2023-05-23T04:44:49;11.75;;;6.18;;
36855;SDS011;22788;51.434;6.786;2023-05-23T04:47:15;8.93;;;6.20;;
36855;SDS011;22788;51.434;6.786;2023-05-23T04:49:40;9.25;;;6.13;;
36855;SDS011;22788;51.434;6.786;2023-05-23T04:52:07;9.98;;;6.63;;
36855;SDS011;22788;51.434;6.786;2023-05-23T04:54:33;10.65;;;6.53;;
36855;SDS011;22788;51.434;6.786;2023-05-23T04:56:59;9.55;;;6.00;;
36855;SDS011;22788;51.434;6.786;2023-05-23T04:59:24;10.48;;;6.20;;
36855;SDS011;22788;51.434;6.786;2023-05-23T05:01:50;10.75;;;8.40;;
36855;SDS011;22788;51.434;6.786;2023-05-23T05:04:16;10.07;;;7.22;;
36855;SDS011;22788;51.434;6.786;2023-05-23T05:06:41;8.88;;;6.00;;
36855;SDS011;22788;51.434;6.786;2023-05-23T05:09:08;12.25;;;6.55;;
36855;SDS011;22788;51.434;6.786;2023-05-23T05:11:34;7.50;;;5.63;;
36855;SDS011;22788;51.434;6.786;2023-05-23T05:13:59;9.18;;;5.95;;
36855;SDS011;22788;51.434;6.786;2023-05-23T05:16:25;10.52;;;6.28;;
36855;SDS011;22788;51.434;6.786;2023-05-23T05:18:51;14.57;;;7.55;;
36855;SDS011;22788;51.434;6.786;2023-05-23T05:21:16;10.75;;;7.13;;
36855;SDS011;22788;51.434;6.786;2023-05-23T05:23:42;8.93;;;6.60;;
36855;SDS011;22788;51.434;6.786;2023-05-23T05:26:09;7.85;;;5.85;;
36855;SDS011;22788;51.434;6.786;2023-05-23T05:28:34;9.45;;;6.63;;
36855;SDS011;22788;51.434;6.786;2023-05-23T05:31:00;9.55;;;5.85;;
36855;SDS011;22788;51.434;6.786;2023-05-23T05:33:26;12.00;;;6.40;;
36855;SDS011;22788;51.434;6.786;2023-05-23T05:35:51;11.35;;;6.43;;
36855;SDS011;22788;51.434;6.786;2023-05-23T05:38:17;11.68;;;6.85;;
36855;SDS011;22788;51.434;6.786;2023-05-23T05:40:43;11.18;;;7.25;;
36855;SDS011;22788;51.434;6.786;2023-05-23T05:43:10;11.40;;;6.60;;
36855;SDS011;22788;51.434;6.786;2023-05-23T05:45:35;14.70;;;7.32;;
36855;SDS011;22788;51.434;6.786;2023-05-23T05:48:01;11.65;;;6.88;;
36855;SDS011;22788;51.434;6.786;2023-05-23T05:50:27;10.60;;;7.00;;
36855;SDS011;22788;51.434;6.786;2023-05-23T05:52:52;9.93;;;6.55;;
36855;SDS011;22788;51.434;6.786;2023-05-23T05:55:18;10.05;;;6.40;;
36855;SDS011;22788;51.434;6.786;2023-05-23T05:57:44;11.50;;;6.22;;
36855;SDS011;22788;51.434;6.786;2023-05-23T06:00:11;12.20;;;7.82;;
36855;SDS011;22788;51.434;6.786;2023-05-23T06:02:38;11.75;;;7.07;;
36855;SDS011;22788;51.434;6.786;2023-05-23T06:05:04;9.93;;;5.95;;
36855;SDS011;22788;51.434;6.786;2023-05-23T06:07:30;16.02;;;6.80;;
36855;SDS011;22788;51.434;6.786;2023-05-23T06:09:56;11.75;;;7.05;;
36855;SDS011;22788;51.434;6.786;2023-05-23T06:12:21;12.82;;;7.40;;
36855;SDS011;22788;51.434;6.786;2023-05-23T06:14:47;13.38;;;6.97;;
36855;SDS011;22788;51.434;6.786;2023-05-23T06:17:14;13.95;;;7.18;;
36855;SDS011;22788;51.434;6.786;2023-05-23T06:19:39;9.43;;;6.32;;
36855;SDS011;22788;51.434;6.786;2023-05-23T06:22:05;11.05;;;6.88;;
36855;SDS011;22788;51.434;6.786;2023-05-23T06:24:31;15.95;;;7.13;;
36855;SDS011;22788;51.434;6.786;2023-05-23T06:26:56;15.13;;;7.63;;
36855;SDS011;22788;51.434;6.786;2023-05-23T06:29:22;13.20;;;7.45;;
36855;SDS011;22788;51.434;6.786;2023-05-23T06:31:47;14.95;;;6.97;;
36855;SDS011;22788;51.434;6.786;2023-05-23T06:34:14;13.02;;;8.02;;
36855;SDS011;22788;51.434;6.786;2023-05-23T06:36:40;15.27;;;7.20;;
36855;SDS011;22788;51.434;6.786;2023-05-23T06:39:06;14.93;;;7.68;;
36855;SDS011;22788;51.434;6.786;2023-05-23T06:41:31;13.00;;;7.78;;
36855;SDS011;22788;51.434;6.786;2023-05-23T06:43:57;10.90;;;6.97;;
36855;SDS011;22788;51.434;6.786;2023-05-23T06:46:22;10.57;;;6.70;;
36855;SDS011;22788;51.434;6.786;2023-05-23T06:48:48;8.88;;;6.15;;
36855;SDS011;22788;51.434;6.786;2023-05-23T06:51:15;14.00;;;7.78;;
36855;SDS011;22788;51.434;6.786;2023-05-23T06:53:41;12.52;;;6.22;;
36855;SDS011;22788;51.434;6.786;2023-05-23T06:56:06;11.27;;;6.97;;
36855;SDS011;22788;51.434;6.786;2023-05-23T06:58:32;12.18;;;7.13;;
36855;SDS011;22788;51.434;6.786;2023-05-23T07:00:57;12.88;;;7.68;;
36855;SDS011;22788;51.434;6.786;2023-05-23T07:03:23;10.52;;;7.13;;
36855;SDS011;22788;51.434;6.786;2023-05-23T07:05:48;9.38;;;6.63;;
36855;SDS011;22788;51.434;6.786;2023-05-23T07:08:15;12.95;;;6.57;;
36855;SDS011;22788;51.434;6.786;2023-05-23T07:10:41;11.50;;;7.28;;
36855;SDS011;22788;51.434;6.786;2023-05-23T07:13:07;10.82;;;7.25;;
36855;SDS011;22788;51.434;6.786;2023-05-23T07:15:32;15.55;;;7.57;;
36855;SDS011;22788;51.434;6.786;2023-05-23T07:17:58;13.45;;;7.15;;
36855;SDS011;22788;51.434;6.786;2023-05-23T07:20:23;14.25;;;7.00;;
36855;SDS011;22788;51.434;6.786;2023-05-23T07:22:49;11.63;;;6.72;;
36855;SDS011;22788;51.434;6.786;2023-05-23T07:25:16;11.23;;;6.45;;
36855;SDS011;22788;51.434;6.786;2023-05-23T07:27:42;13.32;;;6.75;;
36855;SDS011;22788;51.434;6.786;2023-05-23T07:30:07;9.48;;;6.30;;
36855;SDS011;22788;51.434;6.786;2023-05-23T07:32:33;10.75;;;6.18;;
36855;SDS011;22788;51.434;6.786;2023-05-23T07:34:59;11.90;;;7.22;;
36855;SDS011;22788;51.434;6.786;2023-05-23T07:37:24;13.68;;;6.32;;
36855;SDS011;22788;51.434;6.786;2023-05-23T07:39:50;13.27;;;6.15;;
36855;SDS011;22788;51.434;6.786;2023-05-23T07:42:17;14.73;;;7.20;;
36855;SDS011;22788;51.434;6.786;2023-05-23T07:44:43;11.40;;;6.18;;
36855;SDS011;22788;51.434;6.786;2023-05-23T07:47:08;11.27;;;6.00;;
36855;SDS011;22788;51.434;6.786;2023-05-23T07:49:34;13.57;;;6.57;;
36855;SDS011;22788;51.434;6.786;2023-05-23T07:51:59;11.77;;;6.70;;
36855;SDS011;22788;51.434;6.786;2023-05-23T07:54:25;15.13;;;7.70;;
36855;SDS011;22788;51.434;6.786;2023-05-23T07:56:51;18.23;;;7.68;;
36855;SDS011;22788;51.434;6.786;2023-05-23T07:59:18;8.73;;;6.75;;
36855;SDS011;22788;51.434;6.786;2023-05-23T08:01:44;12.45;;;7.30;;
36855;SDS011;22788;51.434;6.786;2023-05-23T08:04:09;16.30;;;7.55;;
36855;SDS011;22788;51.434;6.786;2023-05-23T08:06:35;14.05;;;7.10;;
36855;SDS011;22788;51.434;6.786;2023-05-23T08:09:01;16.50;;;7.03;;
36855;SDS011;22788;51.434;6.786;2023-05-23T08:11:26;14.48;;;7.35;;
36855;SDS011;22788;51.434;6.786;2023-05-23T08:13:52;13.10;;;6.88;;
36855;SDS011;22788;51.434;6.786;2023-05-23T08:16:19;18.45;;;7.97;;
36855;SDS011;22788;51.434;6.786;2023-05-23T08:18:44;20.02;;;7.35;;
36855;SDS011;22788;51.434;6.786;2023-05-23T08:21:10;15.80;;;7.45;;
36855;SDS011;22788;51.434;6.786;2023-05-23T08:23:35;20.52;;;8.90;;
36855;SDS011;22788;51.434;6.786;2023-05-23T08:26:01;14.75;;;8.55;;
36855;SDS011;22788;51.434;6.786;2023-05-23T08:28:27;16.17;;;9.75;;
36855;SDS011;22788;51.434;6.786;2023-05-23T08:30:52;19.08;;;7.88;;
36855;SDS011;22788;51.434;6.786;2023-05-23T08:33:19;18.23;;;8.10;;
36855;SDS011;22788;51.434;6.786;2023-05-23T08:35:45;19.05;;;9.80;;
36855;SDS011;22788;51.434;6.786;2023-05-23T08:38:10;20.63;;;11.95;;
36855;SDS011;22788;51.434;6.786;2023-05-23T08:40:36;20.05;;;9.43;;
36855;SDS011;22788;51.434;6.786;2023-05-23T08:43:06;18.42;;;9.07;;
36855;SDS011;22788;51.434;6.786;2023-05-23T08:45:32;19.17;;;10.10;;
36855;SDS011;22788;51.434;6.786;2023-05-23T08:47:58;22.40;;;13.40;;
36855;SDS011;22788;51.434;6.786;2023-05-23T08:50:27;18.88;;;11.00;;
36855;SDS011;22788;51.434;6.786;2023-05-23T08:52:54;19.45;;;10.85;;
36855;SDS011;22788;51.434;6.786;2023-05-23T08:55:22;23.10;;;10.25;;
36855;SDS011;22788;51.434;6.786;2023-05-23T08:57:48;17.50;;;9.80;;
36855;SDS011;22788;51.434;6.786;2023-05-23T09:00:15;18.90;;;9.95;;
36855;SDS011;22788;51.434;6.786;2023-05-23T09:02:42;22.20;;;9.77;;
36855;SDS011;22788;51.434;6.786;2023-05-23T09:05:08;14.73;;;9.05;;
36855;SDS011;22788;51.434;6.786;2023-05-23T09:07:35;17.42;;;11.07;;
36855;SDS011;22788;51.434;6.786;2023-05-23T09:10:01;19.00;;;9.27;;
36855;SDS011;22788;51.434;6.786;2023-05-23T09:12:27;22.60;;;9.80;;
36855;SDS011;22788;51.434;6.786;2023-05-23T09:14:52;16.80;;;8.57;;
36855;SDS011;22788;51.434;6.786;2023-05-23T09:17:18;17.38;;;7.88;;
36855;SDS011;22788;51.434;6.786;2023-05-23T09:19:44;17.27;;;8.15;;
36855;SDS011;22788;51.434;6.786;2023-05-23T09:22:09;14.05;;;7.55;;
36855;SDS011;22788;51.434;6.786;2023-05-23T09:24:36;12.40;;;7.78;;
36855;SDS011;22788;51.434;6.786;2023-05-23T09:27:04;13.80;;;6.82;;
36855;SDS011;22788;51.434;6.786;2023-05-23T09:29:30;14.23;;;7.40;;
36855;SDS011;22788;51.434;6.786;2023-05-23T09:31:58;14.30;;;7.15;;
36855;SDS011;22788;51.434;6.786;2023-05-23T09:34:24;14.93;;;8.00;;
36855;SDS011;22788;51.434;6.786;2023-05-23T09:36:49;19.92;;;8.00;;
36855;SDS011;22788;51.434;6.786;2023-05-23T09:39:18;17.40;;;7.05;;
36855;SDS011;22788;51.434;6.786;2023-05-23T09:41:46;13.13;;;7.40;;
36855;SDS011;22788;51.434;6.786;2023-05-23T09:44:12;19.45;;;7.82;;
36855;SDS011;22788;51.434;6.786;2023-05-23T09:46:38;22.35;;;7.93;;
36855;SDS011;22788;51.434;6.786;2023-05-23T09:49:13;16.95;;;7.75;;
36855;SDS011;22788;51.434;6.786;2023-05-23T09:51:40;14.95;;;7.75;;
36855;SDS011;22788;51.434;6.786;2023-05-23T09:54:05;13.88;;;7.82;;
36855;SDS011;22788;51.434;6.786;2023-05-23T09:56:31;15.45;;;8.55;;
36855;SDS011;22788;51.434;6.786;2023-05-23T09:59:01;13.30;;;8.55;;
36855;SDS011;22788;51.434;6.786;2023-05-23T10:01:28;15.50;;;7.80;;
36855;SDS011;22788;51.434;6.786;2023-05-23T10:03:56;16.02;;;8.82;;
36855;SDS011;22788;51.434;6.786;2023-05-23T10:06:25;18.58;;;8.98;;
36855;SDS011;22788;51.434;6.786;2023-05-23T10:08:55;20.95;;;8.35;;
36855;SDS011;22788;51.434;6.786;2023-05-23T10:14:21;13.73;;;7.07;;
36855;SDS011;22788;51.434;6.786;2023-05-23T10:16:52;12.98;;;6.65;;
36855;SDS011;22788;51.434;6.786;2023-05-23T10:19:23;8.20;;;5.35;;
36855;SDS011;22788;51.434;6.786;2023-05-23T10:21:50;11.82;;;6.03;;
36855;SDS011;22788;51.434;6.786;2023-05-23T10:24:20;20.40;;;6.32;;
36855;SDS011;22788;51.434;6.786;2023-05-23T10:26:48;10.30;;;5.90;;
36855;SDS011;22788;51.434;6.786;2023-05-23T10:29:14;7.43;;;5.15;;
36855;SDS011;22788;51.434;6.786;2023-05-23T10:31:41;12.13;;;5.40;;
36855;SDS011;22788;51.434;6.786;2023-05-23T10:34:10;9.77;;;5.15;;
36855;SDS011;22788;51.434;6.786;2023-05-23T10:36:42;7.90;;;4.95;;
36855;SDS011;22788;51.434;6.786;2023-05-23T10:39:19;11.73;;;5.07;;
36855;SDS011;22788;51.434;6.786;2023-05-23T10:41:55;10.63;;;4.82;;
36855;SDS011;22788;51.434;6.786;2023-05-23T10:44:26;11.70;;;5.00;;
36855;SDS011;22788;51.434;6.786;2023-05-23T10:46:55;10.25;;;5.10;;
36855;SDS011;22788;51.434;6.786;2023-05-23T10:49:22;9.20;;;5.03;;
36855;SDS011;22788;51.434;6.786;2023-05-23T10:52:01;10.70;;;5.38;;
36855;SDS011;22788;51.434;6.786;2023-05-23T10:54:28;9.20;;;4.88;;
36855;SDS011;22788;51.434;6.786;2023-05-23T10:57:02;11.25;;;5.43;;
36855;SDS011;22788;51.434;6.786;2023-05-23T10:59:28;11.02;;;4.93;;
36855;SDS011;22788;51.434;6.786;2023-05-23T11:01:55;8.50;;;4.57;;
36855;SDS011;22788;51.434;6.786;2023-05-23T11:04:25;11.45;;;4.30;;
36855;SDS011;22788;51.434;6.786;2023-05-23T11:06:52;9.25;;;4.32;;
36855;SDS011;22788;51.434;6.786;2023-05-23T11:09:18;8.07;;;4.15;;
36855;SDS011;22788;51.434;6.786;2023-05-23T11:11:54;10.77;;;4.32;;
36855;SDS011;22788;51.434;6.786;2023-05-23T11:14:33;8.00;;;4.28;;
36855;SDS011;22788;51.434;6.786;2023-05-23T11:17:15;6.38;;;3.80;;
36855;SDS011;22788;51.434;6.786;2023-05-23T11:19:54;6.68;;;3.97;;
36855;SDS011;22788;51.434;6.786;2023-05-23T11:22:26;7.68;;;3.95;;
36855;SDS011;22788;51.434;6.786;2023-05-23T11:24:52;10.07;;;3.67;;
36855;SDS011;22788;51.434;6.786;2023-05-23T11:27:24;7.00;;;4.15;;
36855;SDS011;22788;51.434;6.786;2023-05-23T11:30:00;10.52;;;3.83;;
36855;SDS011;22788;51.434;6.786;2023-05-23T11:32:29;8.43;;;3.55;;
36855;SDS011;22788;51.434;6.786;2023-05-23T11:34:59;6.85;;;3.67;;
36855;SDS011;22788;51.434;6.786;2023-05-23T11:37:26;11.95;;;6.95;;
36855;SDS011;22788;51.434;6.786;2023-05-23T11:39:52;11.30;;;4.30;;
36855;SDS011;22788;51.434;6.786;2023-05-23T11:42:17;10.63;;;4.50;;
36855;SDS011;22788;51.434;6.786;2023-05-23T11:44:43;12.67;;;5.60;;
36855;SDS011;22788;51.434;6.786;2023-05-23T11:47:12;13.77;;;5.60;;
36855;SDS011;22788;51.434;6.786;2023-05-23T11:49:42;12.27;;;4.97;;
36855;SDS011;22788;51.434;6.786;2023-05-23T11:52:16;13.75;;;4.50;;
36855;SDS011;22788;51.434;6.786;2023-05-23T11:54:47;17.02;;;4.88;;
36855;SDS011;22788;51.434;6.786;2023-05-23T11:57:18;10.70;;;4.43;;
36855;SDS011;22788;51.434;6.786;2023-05-23T11:59:50;10.55;;;3.72;;
36855;SDS011;22788;51.434;6.786;2023-05-23T12:02:28;10.73;;;4.15;;
36855;SDS011;22788;51.434;6.786;2023-05-23T12:05:16;9.88;;;4.20;;
36855;SDS011;22788;51.434;6.786;2023-05-23T12:07:48;12.05;;;3.47;;
36855;SDS011;22788;51.434;6.786;2023-05-23T12:10:16;15.70;;;4.25;;
36855;SDS011;22788;51.434;6.786;2023-05-23T12:12:43;9.95;;;3.92;;
36855;SDS011;22788;51.434;6.786;2023-05-23T12:15:11;9.20;;;3.72;;
36855;SDS011;22788;51.434;6.786;2023-05-23T12:17:39;6.97;;;3.47;;
36855;SDS011;22788;51.434;6.786;2023-05-23T12:20:10;9.77;;;3.70;;
36855;SDS011;22788;51.434;6.786;2023-05-23T12:22:37;11.75;;;4.85;;
36855;SDS011;22788;51.434;6.786;2023-05-23T12:25:06;9.32;;;4.03;;
36855;SDS011;22788;51.434;6.786;2023-05-23T12:27:33;13.98;;;4.07;;
36855;SDS011;22788;51.434;6.786;2023-05-23T12:30:06;14.70;;;3.47;;
36855;SDS011;22788;51.434;6.786;2023-05-23T12:32:33;14.65;;;4.10;;
36855;SDS011;22788;51.434;6.786;2023-05-23T12:34:59;14.38;;;4.10;;
36855;SDS011;22788;51.434;6.786;2023-05-23T12:37:25;7.70;;;3.38;;
36855;SDS011;22788;51.434;6.786;2023-05-23T12:39:52;7.28;;;3.78;;
36855;SDS011;22788;51.434;6.786;2023-05-23T12:42:18;8.68;;;4.05;;
36855;SDS011;22788;51.434;6.786;2023-05-23T12:44:43;9.20;;;3.70;;
36855;SDS011;22788;51.434;6.786;2023-05-23T12:47:09;10.00;;;4.25;;
36855;SDS011;22788;51.434;6.786;2023-05-23T12:49:35;11.00;;;3.65;;
36855;SDS011;22788;51.434;6.786;2023-05-23T12:52:02;7.78;;;3.70;;
36855;SDS011;22788;51.434;6.786;2023-05-23T12:54:27;13.75;;;4.20;;
36855;SDS011;22788;51.434;6.786;2023-05-23T12:56:54;11.75;;;4.00;;
36855;SDS011;22788;51.434;6.786;2023-05-23T12:59:20;7.63;;;3.80;;
36855;SDS011;22788;51.434;6.786;2023-05-23T13:01:45;12.10;;;4.20;;
36855;SDS011;22788;51.434;6.786;2023-05-23T13:04:11;9.45;;;4.07;;
36855;SDS011;22788;51.434;6.786;2023-05-23T13:06:37;8.60;;;3.70;;
36855;SDS011;22788;51.434;6.786;2023-05-23T13:09:02;7.50;;;3.75;;
36855;SDS011;22788;51.434;6.786;2023-05-23T13:11:28;7.72;;;3.58;;
36855;SDS011;22788;51.434;6.786;2023-05-23T13:13:55;10.90;;;4.03;;
36855;SDS011;22788;51.434;6.786;2023-05-23T13:16:21;10.77;;;4.22;;
36855;SDS011;22788;51.434;6.786;2023-05-23T13:18:47;13.05;;;3.90;;
36855;SDS011;22788;51.434;6.786;2023-05-23T13:21:12;10.32;;;3.83;;
36855;SDS011;22788;51.434;6.786;2023-05-23T13:23:38;7.65;;;3.38;;
36855;SDS011;22788;51.434;6.786;2023-05-23T13:26:04;10.80;;;3.53;;
36855;SDS011;22788;51.434;6.786;2023-05-23T13:28:29;14.35;;;4.05;;
36855;SDS011;22788;51.434;6.786;2023-05-23T13:30:56;10.05;;;4.15;;
36855;SDS011;22788;51.434;6.786;2023-05-23T13:33:22;8.20;;;3.70;;
36855;SDS011;22788;51.434;6.786;2023-05-23T13:35:48;12.15;;;3.75;;
36855;SDS011;22788;51.434;6.786;2023-05-23T13:38:14;13.82;;;3.78;;
36855;SDS011;22788;51.434;6.786;2023-05-23T13:40:41;8.02;;;3.72;;
36855;SDS011;22788;51.434;6.786;2023-05-23T13:43:06;11.35;;;3.40;;
36855;SDS011;22788;51.434;6.786;2023-05-23T13:45:32;8.45;;;3.28;;
36855;SDS011;22788;51.434;6.786;2023-05-23T13:47:59;11.90;;;3.70;;
36855;SDS011;22788;51.434;6.786;2023-05-23T13:50:24;12.25;;;3.83;;
36855;SDS011;22788;51.434;6.786;2023-05-23T13:52:50;10.30;;;3.65;;
36855;SDS011;22788;51.434;6.786;2023-05-23T13:55:16;12.23;;;3.95;;
36855;SDS011;22788;51.434;6.786;2023-05-23T13:57:41;9.15;;;3.42;;
36855;SDS011;22788;51.434;6.786;2023-05-23T14:00:07;12.43;;;3.72;;
36855;SDS011;22788;51.434;6.786;2023-05-23T14:02:34;8.90;;;3.53;;
36855;SDS011;22788;51.434;6.786;2023-05-23T14:05:01;7.20;;;3.35;;
36855;SDS011;22788;51.434;6.786;2023-05-23T14:07:26;14.23;;;3.97;;
36855;SDS011;22788;51.434;6.786;2023-05-23T14:09:52;13.52;;;3.55;;
36855;SDS011;22788;51.434;6.786;2023-05-23T14:12:18;10.80;;;3.53;;
36855;SDS011;22788;51.434;6.786;2023-05-23T14:14:43;12.50;;;4.38;;
36855;SDS011;22788;51.434;6.786;2023-05-23T14:17:12;7.68;;;3.80;;
36855;SDS011;22788;51.434;6.786;2023-05-23T14:19:39;13.40;;;4.28;;
36855;SDS011;22788;51.434;6.786;2023-05-23T14:22:06;10.55;;;4.20;;
36855;SDS011;22788;51.434;6.786;2023-05-23T14:24:31;14.10;;;3.92;;
36855;SDS011;22788;51.434;6.786;2023-05-23T14:26:57;10.20;;;3.50;;
36855;SDS011;22788;51.434;6.786;2023-05-23T14:29:22;8.73;;;3.55;;
36855;SDS011;22788;51.434;6.786;2023-05-23T14:31:48;10.93;;;3.58;;
36855;SDS011;22788;51.434;6.786;2023-05-23T14:34:14;9.63;;;3.78;;
36855;SDS011;22788;51.434;6.786;2023-05-23T14:36:39;7.45;;;3.33;;
36855;SDS011;22788;51.434;6.786;2023-05-23T14:39:06;9.85;;;3.78;;
36855;SDS011;22788;51.434;6.786;2023-05-23T14:41:32;12.10;;;3.42;;